createdAt,value
2018-01-15T00:01:31.012Z,28.25
2018-01-15T00:03:07.417Z,16.50
2018-01-15T00:04:43.762Z,32.50
2018-01-15T00:06:20.547Z,47.25
2018-01-15T00:07:56.911Z,31.00
2018-01-15T00:09:33.297Z,18.25
2018-01-15T00:11:10.512Z,14.25
2018-01-15T00:12:47.289Z,19.75
2018-01-15T00:14:23.725Z,26.75
2018-01-15T00:16:01.173Z,25.50
2018-01-15T00:17:38.406Z,19.50
2018-01-15T00:19:15.151Z,14.00
2018-01-15T00:20:51.605Z,68.25
2018-01-15T00:22:33.787Z,27.75
2018-01-15T00:24:10.868Z,26.50
2018-01-15T00:25:47.224Z,28.50
2018-01-15T00:27:24.408Z,33.25
2018-01-15T00:29:01.142Z,21.75
2018-01-15T00:30:39.635Z,30.50
2018-01-15T00:32:17.154Z,16.25
2018-01-15T00:33:53.711Z,65.00
2018-01-15T00:35:30.816Z,24.25
2018-01-15T00:37:07.641Z,28.50
2018-01-15T00:38:44.099Z,13.50
2018-01-15T00:40:20.536Z,16.75
2018-01-15T00:41:56.741Z,16.75
2018-01-15T00:43:33.765Z,17.00
2018-01-15T00:45:11.058Z,16.25
2018-01-15T00:46:47.674Z,28.50
2018-01-15T00:48:24.027Z,38.75
2018-01-15T00:50:01.735Z,26.25
2018-01-15T00:51:38.169Z,18.50
2018-01-15T00:53:14.465Z,20.50
2018-01-15T00:54:50.830Z,42.50
2018-01-15T00:56:27.912Z,21.75
2018-01-15T00:58:05.254Z,27.50
2018-01-15T00:59:42.465Z,20.50
2018-01-15T01:01:19.066Z,33.50
2018-01-15T01:02:55.790Z,16.75
2018-01-15T01:04:32.022Z,31.75
2018-01-15T01:06:08.294Z,18.75
2018-01-15T01:07:45.550Z,19.75
2018-01-15T01:09:22.112Z,20.50
2018-01-15T01:10:58.587Z,46.00
2018-01-15T01:12:34.902Z,43.50
2018-01-15T01:14:11.223Z,26.50
2018-01-15T01:15:48.427Z,18.50
2018-01-15T01:17:25.162Z,19.75
2018-01-15T01:19:01.459Z,25.25
2018-01-15T01:20:38.083Z,37.75
2018-01-15T01:22:15.167Z,17.00
2018-01-15T01:23:51.417Z,18.75
2018-01-15T01:25:29.332Z,29.00
2018-01-15T01:28:38.407Z,36.75
2018-01-15T01:30:16.567Z,64.50
2018-01-15T01:31:52.876Z,16.75
2018-01-15T01:33:29.405Z,24.25
2018-01-15T01:35:06.406Z,64.25
2018-01-15T01:36:42.942Z,27.50
2018-01-15T01:38:19.377Z,18.50
2018-01-15T01:39:55.861Z,10.00
2018-01-15T01:41:32.774Z,45.25
2018-01-15T01:44:53.863Z,17.50
2018-01-15T01:46:30.711Z,12.00
2018-01-15T01:48:07.356Z,18.00
2018-01-15T01:49:46.028Z,12.00
2018-01-15T01:51:22.971Z,32.50
2018-01-15T01:52:59.507Z,27.75
2018-01-15T01:54:36.969Z,24.00
2018-01-15T01:56:13.503Z,30.25
2018-01-15T01:57:50.212Z,19.25
2018-01-15T01:59:26.524Z,21.75
2018-01-15T02:01:03.447Z,24.25
2018-01-15T02:02:39.930Z,30.00
2018-01-15T02:04:17.186Z,26.00
2018-01-15T02:05:53.876Z,32.50
2018-01-15T02:07:30.624Z,27.50
2018-01-15T02:09:07.238Z,33.25
2018-01-15T02:10:43.625Z,23.75
2018-01-15T02:12:19.896Z,24.50
2018-01-15T02:13:56.549Z,15.25
2018-01-15T02:15:37.016Z,21.75
2018-01-15T02:17:13.326Z,27.25
2018-01-15T02:18:49.665Z,32.00
2018-01-15T02:20:26.819Z,17.00
2018-01-15T02:22:03.101Z,22.00
2018-01-15T02:23:39.449Z,30.75
2018-01-15T02:25:16.078Z,26.75
2018-01-15T02:26:52.773Z,21.25
2018-01-15T02:28:29.233Z,24.00
2018-01-15T02:30:05.885Z,11.50
2018-01-15T02:31:42.389Z,24.75
2018-01-15T02:33:19.485Z,20.50
2018-01-15T02:34:55.738Z,55.25
2018-01-15T02:38:05.813Z,38.50
2018-01-15T02:39:43.391Z,30.00
2018-01-15T02:41:20.040Z,29.75
2018-01-15T02:42:57.324Z,29.75
2018-01-15T02:44:33.656Z,20.75
2018-01-15T02:46:11.136Z,16.75
2018-01-15T02:47:47.503Z,15.00
2018-01-15T02:49:23.858Z,25.25
2018-01-15T02:51:00.490Z,24.50
2018-01-15T02:52:37.325Z,27.25
2018-01-15T02:54:13.680Z,25.75
2018-01-15T02:55:50.062Z,34.50
2018-01-15T02:57:26.456Z,29.50
2018-01-15T02:59:03.326Z,30.50
2018-01-15T03:00:39.768Z,41.75
2018-01-15T03:02:16.787Z,36.00
2018-01-15T03:03:53.687Z,30.75
2018-01-15T03:05:30.497Z,43.50
2018-01-15T03:07:07.837Z,33.25
2018-01-15T03:08:44.292Z,38.00
2018-01-15T03:10:20.657Z,39.50
2018-01-15T03:11:57.652Z,29.25
2018-01-15T03:13:33.994Z,32.75
2018-01-15T03:15:10.827Z,38.25
2018-01-15T03:16:49.682Z,33.00
2018-01-15T03:18:27.588Z,37.50
2018-01-15T03:20:04.216Z,36.75
2018-01-15T03:21:41.446Z,40.25
2018-01-15T03:23:17.864Z,27.25
2018-01-15T03:24:55.619Z,55.00
2018-01-15T03:26:32.494Z,23.25
2018-01-15T03:28:08.909Z,33.00
2018-01-15T03:29:45.271Z,31.00
2018-01-15T03:31:22.951Z,33.50
2018-01-15T03:32:59.398Z,30.75
2018-01-15T03:34:36.556Z,35.00
2018-01-15T03:36:12.995Z,38.00
2018-01-15T03:37:50.188Z,39.25
2018-01-15T03:39:27.580Z,44.75
2018-01-15T03:41:03.919Z,34.00
2018-01-15T03:42:40.427Z,30.25
2018-01-15T03:44:17.216Z,31.25
2018-01-15T03:45:53.655Z,31.75
2018-01-15T03:47:30.065Z,40.00
2018-01-15T03:49:07.366Z,41.75
2018-01-15T03:50:44.267Z,34.25
2018-01-15T03:52:20.945Z,38.25
2018-01-15T03:53:57.335Z,35.50
2018-01-15T03:55:34.197Z,31.50
2018-01-15T03:57:12.008Z,42.50
2018-01-15T03:58:49.192Z,34.75
2018-01-15T04:00:25.986Z,33.75
2018-01-15T04:02:02.490Z,34.75
2018-01-15T04:03:39.217Z,34.50
2018-01-15T04:05:15.642Z,35.00
2018-01-15T04:06:52.263Z,31.25
2018-01-15T04:08:28.655Z,31.50
2018-01-15T04:10:05.560Z,34.00
2018-01-15T04:11:42.069Z,46.75
2018-01-15T04:13:18.516Z,30.75
2018-01-15T04:14:55.983Z,38.75
2018-01-15T04:16:32.866Z,30.25
2018-01-15T04:18:09.512Z,30.00
2018-01-15T04:19:45.872Z,37.50
2018-01-15T04:21:23.449Z,38.25
2018-01-15T04:23:00.400Z,38.50
2018-01-15T04:24:36.881Z,36.50
2018-01-15T04:27:43.984Z,40.50
2018-01-15T04:29:20.622Z,35.50
2018-01-15T04:30:57.776Z,38.50
2018-01-15T04:32:34.265Z,41.75
2018-01-15T04:34:11.413Z,35.75
2018-01-15T04:35:48.213Z,42.00
2018-01-15T04:37:24.542Z,32.25
2018-01-15T04:39:00.923Z,44.25
2018-01-15T04:40:37.341Z,37.75
2018-01-15T04:42:14.252Z,36.50
2018-01-15T04:43:51.550Z,48.25
2018-01-15T04:45:27.963Z,46.50
2018-01-15T04:47:04.375Z,55.00
2018-01-15T04:48:42.272Z,39.50
2018-01-15T04:50:18.671Z,37.75
2018-01-15T04:51:55.459Z,40.00
2018-01-15T04:53:31.974Z,27.25
2018-01-15T04:55:09.540Z,42.75
2018-01-15T04:56:46.024Z,40.00
2018-01-15T04:58:22.406Z,44.50
2018-01-15T04:59:59.485Z,32.00
2018-01-15T05:01:36.715Z,28.25
2018-01-15T05:03:13.117Z,36.75
2018-01-15T05:04:50.748Z,32.75
2018-01-15T05:06:27.186Z,44.50
2018-01-15T05:08:04.117Z,42.75
2018-01-15T05:09:40.482Z,45.25
2018-01-15T05:11:16.847Z,32.75
2018-01-15T05:12:53.615Z,37.00
2018-01-15T05:14:30.358Z,35.00
2018-01-15T05:16:06.826Z,34.75
2018-01-15T05:17:43.270Z,42.75
2018-01-15T05:19:19.796Z,46.25
2018-01-15T05:20:57.926Z,41.00
2018-01-15T05:22:34.364Z,43.50
2018-01-15T05:24:11.472Z,31.25
2018-01-15T05:25:47.843Z,35.00
2018-01-15T05:27:24.767Z,36.50
2018-01-15T05:29:01.231Z,44.00
2018-01-15T05:30:38.391Z,43.00
2018-01-15T05:32:15.066Z,47.00
2018-01-15T05:33:52.219Z,28.75
2018-01-15T05:35:28.731Z,39.50
2018-01-15T05:37:05.930Z,35.25
2018-01-15T05:38:42.316Z,37.00
2018-01-15T05:40:19.127Z,38.00
2018-01-15T05:41:56.321Z,40.75
2018-01-15T05:43:32.837Z,38.50
2018-01-15T05:45:09.392Z,37.75
2018-01-15T05:46:57.065Z,30.25
2018-01-15T05:48:34.300Z,40.50
2018-01-15T05:50:10.684Z,40.25
2018-01-15T05:51:47.849Z,51.00
2018-01-15T05:53:24.535Z,34.25
2018-01-15T05:55:02.109Z,39.25
2018-01-15T05:56:38.423Z,44.50
2018-01-15T05:58:14.816Z,48.00
2018-01-15T05:59:51.661Z,49.75
2018-01-15T06:01:29.253Z,36.75
2018-01-15T06:03:05.579Z,39.25
2018-01-15T06:04:43.579Z,32.50
2018-01-15T06:06:20.292Z,45.25
2018-01-15T06:07:57.475Z,31.75
2018-01-15T06:09:33.851Z,47.75
2018-01-15T06:11:10.353Z,40.75
2018-01-15T06:12:48.446Z,26.25
2018-01-15T06:14:24.909Z,20.00
2018-01-15T06:16:04.613Z,40.25
2018-01-15T06:17:40.990Z,29.00
2018-01-15T06:19:18.614Z,33.25
2018-01-15T06:20:55.004Z,35.50
2018-01-15T06:22:31.440Z,26.75
2018-01-15T06:24:07.823Z,32.75
2018-01-15T06:25:44.627Z,39.00
2018-01-15T06:27:21.708Z,27.25
2018-01-15T06:28:59.794Z,32.25
2018-01-15T06:30:36.128Z,38.00
2018-01-15T06:32:13.955Z,36.75
2018-01-15T06:33:50.684Z,19.00
2018-01-15T06:36:04.384Z,31.50
2018-01-15T06:37:41.291Z,26.50
2018-01-15T06:39:18.158Z,25.75
2018-01-15T06:40:54.547Z,19.75
2018-01-15T06:42:30.948Z,35.25
2018-01-15T06:44:07.379Z,34.50
2018-01-15T06:45:44.407Z,40.25
2018-01-15T06:47:20.749Z,29.50
2018-01-15T06:48:57.165Z,20.00
2018-01-15T06:50:33.666Z,21.75
2018-01-15T06:52:12.225Z,47.75
2018-01-15T06:53:48.592Z,42.75
2018-01-15T06:55:25.044Z,44.75
2018-01-15T06:57:01.810Z,23.75
2018-01-15T06:58:38.669Z,43.75
2018-01-15T07:00:16.438Z,26.25
2018-01-15T07:01:52.841Z,27.75
2018-01-15T07:03:29.289Z,16.25
2018-01-15T07:06:48.600Z,30.50
2018-01-15T07:08:25.814Z,21.50
2018-01-15T07:10:02.615Z,46.75
2018-01-15T07:11:39.347Z,38.00
2018-01-15T07:13:15.601Z,41.25
2018-01-15T07:14:53.365Z,30.75
2018-01-15T07:16:30.031Z,39.00
2018-01-15T07:18:06.910Z,46.75
2018-01-15T07:19:43.136Z,40.25
2018-01-15T07:21:19.512Z,32.00
2018-01-15T07:22:55.806Z,38.75
2018-01-15T07:24:32.522Z,45.50
2018-01-15T07:26:08.761Z,45.00
2018-01-15T07:27:45.857Z,28.00
2018-01-15T07:29:22.240Z,53.00
2018-01-15T07:32:38.011Z,50.50
2018-01-15T07:34:14.408Z,51.00
2018-01-15T07:35:50.674Z,33.75
2018-01-15T07:37:27.517Z,46.00
2018-01-15T07:39:05.211Z,40.50
2018-01-15T07:40:41.563Z,56.25
2018-01-15T07:42:17.793Z,45.00
2018-01-15T07:43:56.595Z,38.75
2018-01-15T07:45:32.980Z,25.50
2018-01-15T07:47:09.252Z,37.50
2018-01-15T07:48:46.418Z,38.00
2018-01-15T07:50:24.679Z,35.25
2018-01-15T07:52:01.074Z,35.25
2018-01-15T07:53:37.511Z,52.75
2018-01-15T07:55:13.986Z,46.50
2018-01-15T07:56:51.375Z,49.50
2018-01-15T07:58:27.623Z,54.50
2018-01-15T08:00:04.246Z,37.75
2018-01-15T08:01:40.532Z,48.75
2018-01-15T08:03:17.190Z,47.75
2018-01-15T08:04:53.520Z,45.00
2018-01-15T08:06:30.616Z,45.25
2018-01-15T08:08:06.869Z,54.25
2018-01-15T08:09:43.546Z,46.00
2018-01-15T08:11:19.849Z,47.25
2018-01-15T08:12:57.191Z,49.00
2018-01-15T08:14:34.250Z,42.00
2018-01-15T08:16:11.078Z,46.75
2018-01-15T08:17:47.322Z,36.75
2018-01-15T08:19:24.354Z,33.25
2018-01-15T08:21:02.080Z,44.00
2018-01-15T08:22:39.475Z,30.25
2018-01-15T08:24:15.800Z,48.75
2018-01-15T08:25:52.214Z,46.50
2018-01-15T08:27:28.899Z,46.75
2018-01-15T08:29:05.537Z,24.75
2018-01-15T08:30:42.136Z,49.25
2018-01-15T08:32:18.578Z,44.25
2018-01-15T08:33:56.487Z,40.75
2018-01-15T08:35:33.966Z,50.25
2018-01-15T08:37:11.072Z,43.75
2018-01-15T08:38:47.374Z,44.25
2018-01-15T08:40:23.686Z,51.75
2018-01-15T08:41:59.928Z,48.00
2018-01-15T08:43:37.067Z,43.00
2018-01-15T08:45:15.095Z,28.25
2018-01-15T08:46:51.493Z,46.25
2018-01-15T08:48:28.645Z,40.75
2018-01-15T08:50:05.079Z,41.50
2018-01-15T08:51:41.442Z,44.00
2018-01-15T08:53:18.166Z,40.00
2018-01-15T08:54:55.837Z,45.25
2018-01-15T08:56:32.080Z,25.75
2018-01-15T08:58:08.334Z,38.25
2018-01-15T08:59:45.087Z,39.25
2018-01-15T09:01:21.835Z,45.50
2018-01-15T09:02:58.417Z,32.75
2018-01-15T09:04:34.697Z,39.50
2018-01-15T09:06:11.504Z,52.25
2018-01-15T09:07:47.863Z,41.00
2018-01-15T09:09:24.115Z,47.25
2018-01-15T09:11:00.499Z,34.75
2018-01-15T09:12:37.934Z,34.50
2018-01-15T09:14:14.158Z,41.00
2018-01-15T09:15:51.584Z,44.75
2018-01-15T09:17:27.966Z,48.00
2018-01-15T09:19:05.622Z,43.75
2018-01-15T09:20:42.005Z,42.25
2018-01-15T09:22:18.368Z,35.50
2018-01-15T09:23:54.843Z,39.50
2018-01-15T09:25:31.724Z,41.00
2018-01-15T09:27:08.061Z,46.25
2018-01-15T09:28:44.358Z,34.00
2018-01-15T09:30:20.957Z,31.50
2018-01-15T09:31:58.656Z,40.75
2018-01-15T09:33:35.057Z,33.25
2018-01-15T09:35:11.323Z,41.00
2018-01-15T09:36:47.672Z,48.00
2018-01-15T09:38:24.324Z,32.75
2018-01-15T09:40:05.523Z,49.25
2018-01-15T09:41:41.940Z,48.00
2018-01-15T09:43:18.704Z,51.75
2018-01-15T09:44:55.420Z,40.00
2018-01-15T09:46:31.675Z,50.50
2018-01-15T09:48:08.016Z,49.50
2018-01-15T09:49:46.020Z,44.00
2018-01-15T09:51:23.201Z,46.25
2018-01-15T09:52:59.550Z,37.75
2018-01-15T09:54:35.857Z,45.00
2018-01-15T09:56:12.232Z,36.25
2018-01-15T09:57:48.502Z,31.00
2018-01-15T09:59:24.822Z,50.50
2018-01-15T10:01:01.197Z,44.00
2018-01-15T10:02:37.548Z,50.50
2018-01-15T10:04:14.401Z,44.50
2018-01-15T10:05:50.805Z,53.50
2018-01-15T10:07:27.248Z,44.00
2018-01-15T10:09:03.641Z,26.25
2018-01-15T10:10:40.540Z,21.75
2018-01-15T10:12:17.767Z,34.50
2018-01-15T10:13:54.800Z,42.50
2018-01-15T10:15:31.373Z,37.00
2018-01-15T10:17:08.124Z,25.75
2018-01-15T10:18:45.526Z,25.00
2018-01-15T10:20:22.761Z,31.50
2018-01-15T10:21:59.810Z,39.50
2018-01-15T10:23:37.492Z,33.25
2018-01-15T10:25:13.869Z,46.75
2018-01-15T10:26:50.182Z,43.25
2018-01-15T10:28:27.885Z,41.25
2018-01-15T10:30:05.407Z,43.50
2018-01-15T10:31:43.010Z,51.25
2018-01-15T10:33:19.531Z,36.75
2018-01-15T10:34:55.808Z,29.75
2018-01-15T10:36:32.505Z,44.25
2018-01-15T10:38:09.039Z,32.25
2018-01-15T10:39:45.456Z,42.50
2018-01-15T10:41:21.813Z,33.50
2018-01-15T10:42:58.862Z,38.75
2018-01-15T10:44:35.830Z,45.50
2018-01-15T10:46:12.512Z,44.00
2018-01-15T10:49:19.608Z,43.00
2018-01-15T10:50:58.348Z,41.50
2018-01-15T10:52:35.214Z,41.25
2018-01-15T10:54:11.776Z,37.25
2018-01-15T10:55:48.557Z,44.75
2018-01-15T10:57:24.952Z,32.25
2018-01-15T10:59:02.247Z,46.25
2018-01-15T11:00:42.597Z,38.25
2018-01-15T11:02:19.398Z,38.50
2018-01-15T11:03:55.906Z,48.25
2018-01-15T11:05:32.395Z,50.00
2018-01-15T11:07:09.136Z,47.50
2018-01-15T11:08:46.030Z,43.00
2018-01-15T11:10:22.541Z,38.50
2018-01-15T11:12:00.561Z,44.25
2018-01-15T11:13:37.022Z,42.50
2018-01-15T11:15:15.470Z,33.75
2018-01-15T11:16:52.009Z,34.25
2018-01-15T11:18:28.546Z,38.75
2018-01-15T11:20:05.663Z,35.25
2018-01-15T11:21:42.417Z,33.75
2018-01-15T11:23:18.870Z,24.00
2018-01-15T11:24:56.066Z,43.75
2018-01-15T11:26:32.810Z,49.00
2018-01-15T11:28:09.244Z,42.50
2018-01-15T11:29:46.444Z,40.75
2018-01-15T11:31:23.625Z,20.75
2018-01-15T11:33:00.864Z,35.75
2018-01-15T11:34:37.592Z,36.00
2018-01-15T11:36:14.937Z,32.00
2018-01-15T11:37:53.315Z,36.75
2018-01-15T11:39:29.766Z,41.50
2018-01-15T11:41:06.549Z,42.75
2018-01-15T11:42:43.820Z,33.50
2018-01-15T11:44:20.294Z,40.00
2018-01-15T11:45:57.068Z,42.00
2018-01-15T11:47:33.927Z,39.00
2018-01-15T11:49:10.418Z,44.00
2018-01-15T11:50:46.810Z,41.50
2018-01-15T11:52:23.989Z,35.25
2018-01-15T11:54:00.797Z,34.50
2018-01-15T11:55:37.216Z,45.50
2018-01-15T11:57:13.731Z,32.50
2018-01-15T11:58:50.223Z,38.75
2018-01-15T12:00:28.349Z,36.25
2018-01-15T12:02:04.842Z,38.25
2018-01-15T12:03:41.254Z,33.75
2018-01-15T12:05:19.091Z,29.00
2018-01-15T12:06:55.808Z,49.75
2018-01-15T12:08:32.253Z,41.50
2018-01-15T12:10:09.218Z,39.25
2018-01-15T12:11:46.888Z,40.25
2018-01-15T12:13:24.452Z,28.75
2018-01-15T12:15:04.398Z,40.50
2018-01-15T12:16:41.681Z,45.25
2018-01-15T12:18:18.858Z,40.00
2018-01-15T12:19:55.893Z,38.00
2018-01-15T12:21:32.316Z,43.50
2018-01-15T12:23:24.231Z,29.25
2018-01-15T12:25:10.141Z,42.50
2018-01-15T12:26:46.706Z,33.50
2018-01-15T12:28:23.560Z,39.75
2018-01-15T12:30:00.033Z,29.25
2018-01-15T12:31:37.181Z,38.50
2018-01-15T12:33:13.558Z,29.50
2018-01-15T12:34:50.741Z,40.75
2018-01-15T12:36:28.532Z,42.00
2018-01-15T12:38:05.637Z,26.50
2018-01-15T12:39:42.079Z,34.00
2018-01-15T12:41:18.587Z,33.50
2018-01-15T12:42:55.842Z,37.00
2018-01-15T12:44:32.896Z,41.50
2018-01-15T12:46:10.740Z,42.00
2018-01-15T12:47:47.090Z,66.50
2018-01-15T12:49:24.814Z,51.00
2018-01-15T12:51:01.851Z,36.50
2018-01-15T12:52:38.240Z,36.25
2018-01-15T12:54:14.678Z,38.75
2018-01-15T12:55:51.942Z,46.25
2018-01-15T12:57:28.940Z,27.25
2018-01-15T12:59:05.390Z,35.25
2018-01-15T13:00:41.922Z,34.00
2018-01-15T13:04:01.519Z,36.50
2018-01-15T13:05:51.089Z,40.25
2018-01-15T13:07:40.645Z,41.75
2018-01-15T13:09:17.276Z,32.25
2018-01-15T13:10:54.789Z,39.75
2018-01-15T13:12:31.899Z,43.75
2018-01-15T13:14:08.373Z,43.50
2018-01-15T13:15:45.020Z,37.25
2018-01-15T13:17:21.925Z,37.50
2018-01-15T13:18:58.265Z,28.50
2018-01-15T13:20:34.770Z,31.00
2018-01-15T13:22:11.886Z,30.75
2018-01-15T13:25:32.936Z,30.25
2018-01-15T13:27:09.388Z,27.75
2018-01-15T13:28:46.452Z,35.00
2018-01-15T13:30:23.520Z,27.00
2018-01-15T13:32:01.054Z,22.75
2018-01-15T13:33:38.895Z,25.00
2018-01-15T13:35:15.260Z,25.50
2018-01-15T13:36:52.402Z,20.00
2018-01-15T13:38:28.819Z,21.50
2018-01-15T13:40:05.303Z,23.25
2018-01-15T13:41:41.757Z,23.75
2018-01-15T13:43:18.566Z,15.50
2018-01-15T13:44:54.991Z,19.50
2018-01-15T13:46:33.819Z,19.50
2018-01-15T13:48:10.841Z,19.25
2018-01-15T13:49:48.313Z,20.00
2018-01-15T13:51:24.780Z,17.00
2018-01-15T13:53:01.223Z,17.25
2018-01-15T13:54:37.867Z,17.50
2018-01-15T13:56:14.642Z,18.00
2018-01-15T13:57:52.871Z,16.25
2018-01-15T13:59:31.215Z,19.50
2018-01-15T14:01:07.694Z,17.00
2018-01-15T14:02:44.669Z,19.50
2018-01-15T14:04:20.993Z,14.75
2018-01-15T14:05:57.575Z,19.00
2018-01-15T14:07:34.049Z,18.75
2018-01-15T14:09:18.653Z,19.25
2018-01-15T14:10:55.255Z,13.75
2018-01-15T14:12:31.711Z,21.00
2018-01-15T14:14:09.117Z,14.50
2018-01-15T14:15:46.983Z,22.75
2018-01-15T14:17:23.440Z,13.00
2018-01-15T14:18:59.875Z,17.75
2018-01-15T14:20:36.274Z,22.00
2018-01-15T14:22:13.035Z,23.50
2018-01-15T14:23:49.563Z,13.00
2018-01-15T14:25:26.082Z,19.75
2018-01-15T14:27:02.570Z,13.75
2018-01-15T14:28:38.956Z,19.25
2018-01-15T14:30:16.836Z,22.50
2018-01-15T14:31:53.254Z,20.50
2018-01-15T14:33:30.000Z,21.75
2018-01-15T14:35:07.089Z,20.00
2018-01-15T14:36:44.300Z,17.75
2018-01-15T14:38:21.640Z,22.25
2018-01-15T14:39:58.160Z,22.50
2018-01-15T14:41:35.146Z,19.75
2018-01-15T14:43:11.594Z,27.75
2018-01-15T14:44:48.148Z,19.25
2018-01-15T14:46:24.832Z,17.50
2018-01-15T14:48:01.838Z,23.00
2018-01-15T14:49:39.117Z,21.50
2018-01-15T14:51:16.064Z,23.25
2018-01-15T14:52:53.402Z,25.50
2018-01-15T14:54:31.330Z,21.50
2018-01-15T14:56:07.933Z,20.00
2018-01-15T14:57:44.896Z,23.50
2018-01-15T14:59:21.587Z,22.75
2018-01-15T15:00:58.013Z,24.50
2018-01-15T15:02:34.587Z,21.25
2018-01-15T15:04:11.137Z,30.00
2018-01-15T15:05:47.775Z,23.00
2018-01-15T15:07:26.015Z,20.75
2018-01-15T15:09:02.643Z,11.75
2018-01-15T15:10:39.436Z,24.00
2018-01-15T15:12:16.077Z,20.25
2018-01-15T15:13:53.671Z,21.50
2018-01-15T15:15:30.359Z,19.25
2018-01-15T15:17:06.876Z,16.25
2018-01-15T15:18:43.423Z,21.00
2018-01-15T15:20:20.428Z,23.75
2018-01-15T15:21:58.179Z,28.75
2018-01-15T15:23:34.760Z,27.25
2018-01-15T15:25:11.748Z,20.50
2018-01-15T15:26:49.929Z,25.25
2018-01-15T15:28:26.458Z,26.25
2018-01-15T15:30:06.007Z,24.75
2018-01-15T15:31:42.592Z,23.25
2018-01-15T15:33:19.435Z,25.50
2018-01-15T15:34:56.126Z,22.00
2018-01-15T15:36:33.686Z,23.50
2018-01-15T15:38:10.602Z,22.00
2018-01-15T15:39:47.375Z,17.25
2018-01-15T15:41:25.429Z,23.75
2018-01-15T15:43:03.761Z,17.25
2018-01-15T15:44:40.744Z,15.75
2018-01-15T15:46:17.856Z,17.75
2018-01-15T15:47:54.572Z,20.00
2018-01-15T15:49:32.676Z,20.50
2018-01-15T15:51:09.157Z,18.25
2018-01-15T15:52:46.140Z,17.50
2018-01-15T15:54:22.560Z,15.25
2018-01-15T15:56:04.601Z,17.00
2018-01-15T15:57:41.346Z,24.00
2018-01-15T15:59:18.519Z,13.75
2018-01-15T16:00:55.028Z,17.00
2018-01-15T16:02:31.786Z,18.75
2018-01-15T16:04:08.557Z,13.50
2018-01-15T16:05:44.996Z,15.00
2018-01-15T16:07:21.503Z,17.75
2018-01-15T16:08:58.438Z,18.00
2018-01-15T16:10:36.766Z,16.75
2018-01-15T16:12:13.310Z,20.00
2018-01-15T16:13:49.823Z,19.50
2018-01-15T16:15:27.324Z,17.00
2018-01-15T16:17:05.273Z,11.50
2018-01-15T16:18:42.634Z,14.75
2018-01-15T16:20:19.650Z,15.25
2018-01-15T16:22:09.853Z,15.75
2018-01-15T16:23:46.328Z,16.25
2018-01-15T16:25:22.974Z,10.25
2018-01-15T16:27:00.569Z,13.50
2018-01-15T16:28:38.796Z,18.50
2018-01-15T16:30:16.807Z,13.50
2018-01-15T16:31:54.431Z,13.25
2018-01-15T16:33:31.546Z,11.75
2018-01-15T16:35:09.798Z,9.50
2018-01-15T16:36:47.067Z,16.75
2018-01-15T16:38:23.594Z,14.00
2018-01-15T16:40:01.751Z,13.25
2018-01-15T16:41:39.116Z,13.00
2018-01-15T16:43:16.575Z,14.50
2018-01-15T16:44:53.201Z,16.00
2018-01-15T16:46:31.409Z,12.75
2018-01-15T16:48:10.137Z,14.75
2018-01-15T16:49:47.520Z,12.00
2018-01-15T16:52:54.557Z,4.50
2018-01-15T16:54:32.180Z,8.75
2018-01-15T16:56:09.587Z,11.00
2018-01-15T16:57:45.909Z,8.00
2018-01-15T16:59:22.954Z,15.00
2018-01-15T17:01:01.850Z,9.75
2018-01-15T17:02:40.171Z,8.00
2018-01-15T17:04:18.707Z,4.50
2018-01-15T17:05:58.206Z,8.00
2018-01-15T17:07:36.009Z,9.25
2018-01-15T17:09:13.271Z,6.75
2018-01-15T17:10:50.119Z,8.00
2018-01-15T17:12:29.027Z,9.00
2018-01-15T17:14:06.741Z,11.25
2018-01-15T17:15:43.379Z,8.00
2018-01-15T17:17:21.152Z,8.50
2018-01-15T17:19:00.579Z,8.00
2018-01-15T17:20:38.616Z,10.75
2018-01-15T17:22:19.097Z,7.50
2018-01-15T17:23:56.247Z,8.00
2018-01-15T17:25:33.674Z,11.00
2018-01-15T17:27:12.458Z,14.50
2018-01-15T17:28:50.533Z,8.00
2018-01-15T17:30:29.164Z,6.75
2018-01-15T17:32:06.408Z,5.00
2018-01-15T17:33:46.050Z,6.75
2018-01-15T17:35:24.391Z,7.25
2018-01-15T17:37:01.775Z,5.00
2018-01-15T17:38:39.518Z,7.50
2018-01-15T17:40:18.066Z,11.00
2018-01-15T17:41:54.627Z,7.50
2018-01-15T17:43:33.208Z,8.75
2018-01-15T17:45:10.020Z,7.00
2018-01-15T17:46:49.407Z,6.75
2018-01-15T17:48:28.478Z,8.00
2018-01-15T17:50:07.558Z,7.75
2018-01-15T17:51:45.517Z,8.00
2018-01-15T17:53:22.814Z,6.75
2018-01-15T17:55:00.494Z,7.50
2018-01-15T17:56:39.811Z,7.50
2018-01-15T17:58:18.270Z,6.00
2018-01-15T17:59:57.141Z,9.00
2018-01-15T18:01:37.865Z,7.00
2018-01-15T18:03:16.215Z,9.00
2018-01-15T18:04:54.782Z,7.50
2018-01-15T18:06:34.523Z,5.00
2018-01-15T18:08:14.934Z,7.00
2018-01-15T18:09:53.319Z,9.50
2018-01-15T18:11:32.110Z,6.00
2018-01-15T18:13:10.950Z,5.75
2018-01-15T18:14:51.094Z,7.00
2018-01-15T18:16:30.371Z,7.00
2018-01-15T18:18:09.150Z,4.50
2018-01-15T18:19:46.531Z,5.00
2018-01-15T18:21:23.359Z,5.00
2018-01-15T18:23:00.952Z,6.25
2018-01-15T18:24:40.944Z,15.00
2018-01-15T18:26:19.535Z,8.25
2018-01-15T18:28:00.411Z,4.75
2018-01-15T18:29:41.165Z,5.00
2018-01-15T18:31:20.848Z,6.50
2018-01-15T18:33:01.135Z,4.25
2018-01-15T18:34:46.554Z,2.50
2018-01-15T18:36:25.439Z,4.50
2018-01-15T18:38:04.977Z,4.00
2018-01-15T18:39:43.593Z,4.50
2018-01-15T18:41:22.961Z,2.00
2018-01-15T18:43:11.453Z,2.00
2018-01-15T18:44:51.171Z,3.00
2018-01-15T18:46:30.091Z,4.00
2018-01-15T18:48:11.244Z,2.00
2018-01-15T18:49:50.611Z,4.25
2018-01-15T18:51:31.603Z,2.00
2018-01-15T18:53:11.058Z,1.75
2018-01-15T18:54:49.155Z,1.75
2018-01-15T18:56:26.693Z,4.00
2018-01-15T18:58:05.656Z,4.50
2018-01-15T18:59:45.710Z,7.50
2018-01-15T19:01:23.458Z,3.50
2018-01-15T19:03:01.950Z,2.00
2018-01-15T19:04:40.105Z,4.50
2018-01-15T19:06:20.214Z,1.75
2018-01-15T19:08:03.507Z,4.00
2018-01-15T19:09:43.462Z,4.75
2018-01-15T19:11:21.462Z,6.75
2018-01-15T19:13:00.453Z,5.00
2018-01-15T19:14:42.672Z,4.75
2018-01-15T19:16:23.234Z,13.75
2018-01-15T19:18:02.930Z,4.75
2018-01-15T19:19:43.435Z,2.00
2018-01-15T19:21:21.269Z,1.00
2018-01-15T19:23:00.084Z,2.00
2018-01-15T19:24:43.018Z,2.50
2018-01-15T19:26:23.612Z,2.00
2018-01-15T19:28:07.093Z,4.00
2018-01-15T19:29:48.387Z,2.00
2018-01-15T19:31:28.939Z,2.00
2018-01-15T19:33:07.185Z,2.00
2018-01-15T19:34:47.553Z,6.25
2018-01-15T19:36:36.213Z,2.00
2018-01-15T19:38:21.602Z,2.75
2018-01-15T19:40:01.572Z,2.00
2018-01-15T19:41:45.969Z,2.00
2018-01-15T19:43:27.247Z,2.00
2018-01-15T19:45:10.126Z,2.00
2018-01-15T19:46:55.736Z,4.00
2018-01-15T19:50:40.766Z,2.00
2018-01-15T19:52:26.328Z,2.00
2018-01-15T19:56:09.869Z,2.00
2018-01-15T19:59:56.840Z,5.00
2018-01-15T20:03:40.388Z,2.00
2018-01-15T20:07:25.913Z,4.00
2018-01-15T20:11:13.838Z,7.75
2018-01-15T20:12:52.992Z,10.75
2018-01-15T20:14:38.923Z,4.25
2018-01-15T20:16:18.374Z,5.75
2018-01-15T20:17:58.222Z,4.00
2018-01-15T20:19:38.065Z,3.50
2018-01-15T20:21:18.144Z,3.50
2018-01-15T20:22:59.849Z,4.75
2018-01-15T20:24:41.234Z,4.50
2018-01-15T20:26:23.514Z,5.75
2018-01-15T20:28:04.975Z,4.00
2018-01-15T20:29:49.963Z,4.00
2018-01-15T20:31:32.594Z,3.00
2018-01-15T20:33:14.811Z,5.00
2018-01-15T20:34:55.487Z,6.75
2018-01-15T20:36:35.159Z,5.75
2018-01-15T20:38:14.920Z,4.50
2018-01-15T20:39:57.198Z,5.25
2018-01-15T20:41:39.953Z,9.75
2018-01-15T20:43:23.823Z,4.50
2018-01-15T20:45:12.610Z,7.75
2018-01-15T20:48:50.007Z,9.00
2018-01-15T20:50:33.835Z,4.75
2018-01-15T20:52:19.147Z,7.00
2018-01-15T20:54:10.034Z,9.00
2018-01-15T20:55:59.032Z,5.25
2018-01-15T20:57:49.430Z,6.25
2018-01-15T21:00:32.271Z,8.00
2018-01-15T21:02:12.535Z,5.75
2018-01-15T21:03:56.266Z,5.50
2018-01-15T21:05:37.468Z,5.50
2018-01-15T21:07:21.566Z,9.75
2018-01-15T21:09:00.686Z,6.25
2018-01-15T21:10:40.476Z,10.25
2018-01-15T21:12:20.177Z,6.00
2018-01-15T21:13:58.072Z,11.00
2018-01-15T21:15:37.367Z,4.75
2018-01-15T21:17:15.263Z,4.50
2018-01-15T21:18:52.692Z,8.00
2018-01-15T21:20:30.492Z,8.25
2018-01-15T21:22:11.220Z,15.75
2018-01-15T21:23:51.083Z,14.50
2018-01-15T21:25:29.158Z,7.75
2018-01-15T21:27:06.523Z,3.50
2018-01-15T21:28:43.973Z,5.00
2018-01-15T21:30:21.624Z,2.00
2018-01-15T21:32:03.021Z,6.00
2018-01-15T21:33:41.190Z,8.00
2018-01-15T21:35:19.664Z,5.00
2018-01-15T21:36:57.662Z,5.75
2018-01-15T21:38:35.797Z,4.00